This is the latest recevied weather packets stored in our database for station/object N2XGL-1. If no packets are shown the sender has not sent any weather packets the latest 10 day(s).
| Time | Temp. | Humidity | Pressure | Rain* | Wind** | Luminosity | Snow |
|---|---|---|---|---|---|---|---|
| 1777603354 | 6.11° C | 65% | 1017.2 hPa | 0 mm | - | - | - |
| 1777602926 | 6.67° C | 64% | 1017 hPa | 0 mm | - | - | - |
| 1777602857 | 6.67° C | 64% | 1017 hPa | 0 mm | - | - | - |
| 1777601689 | 7.78° C | 62% | 1016.6 hPa | 0 mm | - | - | - |
| 1777601113 | 7.78° C | 61% | 1016.6 hPa | 0 mm | - | - | - |
| 1777600539 | 8.33° C | 60% | 1016.6 hPa | 0 mm | - | - | - |
| 1777599954 | 8.33° C | 60% | 1016.5 hPa | 0 mm | - | - | - |
| 1777599433 | 8.89° C | 60% | 1016.5 hPa | 0 mm | - | - | - |
| 1777598949 | 8.89° C | 58% | 1016.4 hPa | 0 mm | - | - | - |
| 1777598408 | 8.89° C | 58% | 1016.4 hPa | 0 mm | - | - | - |
| 1777597909 | 8.89° C | 59% | 1016.4 hPa | 0 mm | - | - | - |
| 1777597359 | 9.44° C | 56% | 1016.4 hPa | 0 mm | - | - | - |
| 1777596854 | 9.44° C | 56% | 1016.2 hPa | 0 mm | - | - | - |
| 1777596329 | 9.44° C | 57% | 1016.2 hPa | 0 mm | - | - | - |
| 1777594689 | 9.44° C | 56% | 1016.3 hPa | 0 mm | - | - | - |
| 1777594179 | 9.44° C | 56% | 1016.3 hPa | 0 mm | - | - | - |
| 1777593669 | 9.44° C | 56% | 1016.2 hPa | 0 mm | - | - | - |
| 1777593109 | 9.44° C | 58% | 1016.2 hPa | 0 mm | - | - | - |
| 1777592529 | 9.44° C | 58% | 1016.2 hPa | 0 mm | - | - | - |
| 1777591449 | 9.44° C | 59% | 1016.1 hPa | 0 mm | - | - | - |
| 1777590913 | 9.44° C | 61% | 1016.1 hPa | 0 mm | - | - | - |
| 1777590327 | 9.44° C | 59% | 1016 hPa | 0 mm | - | - | - |
| 1777589744 | 9.44° C | 59% | 1016 hPa | 0 mm | - | - | - |
| 1777589194 | 9.44° C | 56% | 1016 hPa | 0 mm | - | - | - |
| 1777588634 | 9.44° C | 54% | 1016 hPa | 0 mm | - | - | - |
* Rain latest hour (hover to see other rain measurements)
** Current wind speed in m/s (hover to see current wind gust speed)